Wetterstation Vordersexau
Wetterdaten: Woche 25.07.16 - 31.07.16 (KW30)
Datum Zeit Temp. A. Feuchte A. Luftdruck Regen Wind Richtung Taupunkt Windchill Windben
25.07.2016 00:00 18,1 C 83 % 1017,4 hPa 0,0 l/m 0,0 km/h N-NO 15,2 C 18,1 C 0,0 km/h
25.07.2016 01:00 18,4 C 83 % 1017,0 hPa 0,0 l/m 0,0 km/h O-SO 15,5 C 18,4 C 0,0 km/h
25.07.2016 02:00 17,9 C 83 % 1016,9 hPa 0,0 l/m 0,0 km/h O-SO 15,0 C 17,9 C 0,0 km/h
25.07.2016 03:00 17,2 C 84 % 1016,7 hPa 0,0 l/m 0,0 km/h O-SO 14,5 C 17,2 C 0,0 km/h
25.07.2016 04:00 17,1 C 84 % 1016,8 hPa 0,0 l/m 0,0 km/h O-SO 14,4 C 17,1 C 0,0 km/h
25.07.2016 05:00 16,6 C 84 % 1016,9 hPa 0,0 l/m 0,0 km/h O-SO 13,9 C 16,6 C 0,0 km/h
25.07.2016 06:00 16,9 C 83 % 1016,7 hPa 0,0 l/m 0,0 km/h SO 14,0 C 16,9 C 0,0 km/h
25.07.2016 07:00 19,6 C 83 % 1016,8 hPa 0,0 l/m 0,0 km/h SO 16,6 C 19,6 C 0,0 km/h
25.07.2016 08:00 21,3 C 83 % 1017,2 hPa 0,0 l/m 0,0 km/h NO 18,3 C 21,3 C 0,0 km/h
25.07.2016 09:00 23,8 C 76 % 1017,3 hPa 0,0 l/m 0,0 km/h W 19,3 C 23,8 C 0,0 km/h
25.07.2016 10:00 26,6 C 66 % 1017,1 hPa 0,0 l/m 1,3 km/h N-NO 19,7 C 26,6 C 0,7 km/h
25.07.2016 11:00 29,4 C 56 % 1016,9 hPa 0,0 l/m 0,0 km/h N-NW 19,7 C 29,4 C 0,0 km/h
25.07.2016 12:00 28,4 C 56 % 1016,9 hPa 0,0 l/m 0,0 km/h N-NO 18,8 C 28,4 C 0,0 km/h
25.07.2016 13:00 30,6 C 52 % 1016,7 hPa 0,0 l/m 0,0 km/h N-NO 19,6 C 30,6 C 0,0 km/h
25.07.2016 14:00 31,1 C 48 % 1016,5 hPa 0,0 l/m 0,0 km/h N 18,8 C 31,1 C 0,0 km/h
25.07.2016 15:00 30,6 C 50 % 1016,1 hPa 0,0 l/m 1,9 km/h N-NO 19,0 C 30,6 C 1,1 km/h
25.07.2016 16:00 33,8 C 40 % 1015,9 hPa 0,0 l/m 12,3 km/h NO 18,3 C 33,8 C 6,8 km/h
25.07.2016 17:00 36,8 C 36 % 1015,9 hPa 0,0 l/m 0,0 km/h N-NO 19,2 C 36,8 C 0,0 km/h
25.07.2016 18:00 32,4 C 40 % 1015,9 hPa 0,0 l/m 0,0 km/h N 17,0 C 32,4 C 0,0 km/h
25.07.2016 19:00 28,1 C 48 % 1016,3 hPa 0,0 l/m 0,0 km/h N-NO 16,0 C 28,1 C 0,0 km/h
25.07.2016 20:00 23,5 C 61 % 1016,7 hPa 0,0 l/m 0,0 km/h O-SO 15,5 C 23,5 C 0,0 km/h
25.07.2016 21:00 20,7 C 70 % 1017,2 hPa 0,0 l/m 0,0 km/h O-SO 15,0 C 20,7 C 0,0 km/h
25.07.2016 22:00 19,1 C 76 % 1017,1 hPa 0,0 l/m 0,0 km/h O-SO 14,8 C 19,1 C 0,0 km/h
25.07.2016 23:00 18,1 C 79 % 1017,3 hPa 0,0 l/m 0,0 km/h O-NO 14,4 C 18,1 C 0,0 km/h
26.07.2016 00:00 17,6 C 82 % 1017,6 hPa 0,0 l/m 0,0 km/h O-NO 14,5 C 17,6 C 0,0 km/h
26.07.2016 01:00 16,6 C 82 % 1017,4 hPa 0,0 l/m 0,0 km/h O-NO 13,5 C 16,6 C 0,0 km/h
26.07.2016 02:00 16,1 C 83 % 1017,3 hPa 0,0 l/m 0,0 km/h O-NO 13,2 C 16,1 C 0,0 km/h
26.07.2016 03:00 15,5 C 84 % 1017,2 hPa 0,0 l/m 0,0 km/h O 12,8 C 15,5 C 0,0 km/h
26.07.2016 04:00 15,4 C 84 % 1017,0 hPa 0,0 l/m 0,0 km/h O-SO 12,7 C 15,4 C 0,0 km/h
26.07.2016 05:00 14,9 C 84 % 1017,0 hPa 0,0 l/m 0,0 km/h O-SO 12,2 C 14,9 C 0,0 km/h
26.07.2016 06:00 15,3 C 84 % 1017,1 hPa 0,0 l/m 0,0 km/h SO 12,6 C 15,3 C 0,0 km/h
26.07.2016 07:00 22,4 C 82 % 1017,3 hPa 0,0 l/m 5,8 km/h SO 19,2 C 22,4 C 3,2 km/h
26.07.2016 08:00 27,4 C 61 % 1017,6 hPa 0,0 l/m 0,0 km/h S 19,2 C 27,4 C 0,0 km/h
26.07.2016 09:00 30,9 C 50 % 1017,1 hPa 0,0 l/m 0,0 km/h N-NO 19,2 C 30,9 C 0,0 km/h
26.07.2016 10:00 30,4 C 51 % 1017,1 hPa 0,0 l/m 0,0 km/h S-SW 19,1 C 30,4 C 0,0 km/h
26.07.2016 11:00 30,0 C 51 % 1017,1 hPa 0,0 l/m 0,0 km/h W 18,7 C 30,0 C 0,0 km/h
26.07.2016 12:00 30,8 C 47 % 1016,9 hPa 0,0 l/m 0,0 km/h SW 18,2 C 30,8 C 0,0 km/h
26.07.2016 13:00 32,2 C 43 % 1016,2 hPa 0,0 l/m 16,2 km/h N-NO 18,0 C 32,0 C 9,0 km/h
26.07.2016 14:00 33,2 C 40 % 1016,0 hPa 0,0 l/m 0,0 km/h N-NO 17,7 C 33,2 C 0,0 km/h
26.07.2016 15:00 33,5 C 39 % 1015,6 hPa 0,0 l/m 1,9 km/h NW 17,6 C 33,5 C 1,1 km/h
26.07.2016 16:00 33,8 C 40 % 1015,5 hPa 0,0 l/m 2,6 km/h N 18,3 C 33,8 C 1,4 km/h
26.07.2016 17:00 29,8 C 46 % 1015,4 hPa 0,0 l/m 0,0 km/h W-NW 16,9 C 29,8 C 0,0 km/h
26.07.2016 18:00 33,8 C 38 % 1015,4 hPa 0,0 l/m 6,5 km/h N 17,5 C 33,8 C 3,6 km/h
26.07.2016 19:00 27,2 C 52 % 1016,1 hPa 0,0 l/m 8,4 km/h N 16,5 C 26,8 C 4,7 km/h
26.07.2016 20:00 23,6 C 64 % 1015,9 hPa 0,0 l/m 7,8 km/h N-NO 16,4 C 23,2 C 4,3 km/h
26.07.2016 21:00 21,3 C 69 % 1016,7 hPa 0,0 l/m 0,0 km/h O-SO 15,4 C 21,3 C 0,0 km/h
26.07.2016 22:00 20,1 C 73 % 1016,8 hPa 0,0 l/m 0,0 km/h O 15,1 C 20,1 C 0,0 km/h
26.07.2016 23:00 18,8 C 77 % 1016,5 hPa 0,0 l/m 0,0 km/h O 14,7 C 18,8 C 0,0 km/h
27.07.2016 00:00 17,9 C 80 % 1016,6 hPa 0,0 l/m 0,0 km/h O 14,4 C 17,9 C 0,0 km/h
27.07.2016 01:00 17,6 C 82 % 1016,2 hPa 0,0 l/m 0,0 km/h O 14,5 C 17,6 C 0,0 km/h
27.07.2016 02:00 16,7 C 83 % 1016,1 hPa 0,0 l/m 0,0 km/h O 13,8 C 16,7 C 0,0 km/h
27.07.2016 03:00 16,2 C 83 % 1015,9 hPa 0,0 l/m 0,0 km/h O-NO 13,3 C 16,2 C 0,0 km/h
27.07.2016 04:00 15,8 C 84 % 1015,9 hPa 0,0 l/m 0,0 km/h SO 13,1 C 15,8 C 0,0 km/h
27.07.2016 05:00 16,4 C 83 % 1016,1 hPa 0,0 l/m 0,0 km/h SO 13,5 C 16,4 C 0,0 km/h
27.07.2016 06:00 17,4 C 83 % 1016,0 hPa 0,0 l/m 0,0 km/h SO 14,5 C 17,4 C 0,0 km/h
27.07.2016 07:00 19,6 C 83 % 1016,0 hPa 0,0 l/m 1,3 km/h N-NW 16,6 C 19,6 C 0,7 km/h
27.07.2016 08:00 21,3 C 78 % 1016,3 hPa 0,0 l/m 0,0 km/h S-SO 17,3 C 21,3 C 0,0 km/h
27.07.2016 09:00 27,6 C 63 % 1016,3 hPa 0,0 l/m 0,0 km/h N 19,9 C 27,6 C 0,0 km/h
27.07.2016 10:00 27,2 C 57 % 1016,3 hPa 0,0 l/m 0,0 km/h N-NO 17,9 C 27,2 C 0,0 km/h
27.07.2016 11:00 28,3 C 51 % 1016,2 hPa 0,0 l/m 0,0 km/h W-NW 17,2 C 28,3 C 0,0 km/h
27.07.2016 12:00 28,5 C 54 % 1015,6 hPa 0,0 l/m 11,7 km/h W-NW 18,3 C 27,8 C 6,5 km/h
27.07.2016 13:00 30,1 C 48 % 1015,3 hPa 0,0 l/m 0,0 km/h W 17,9 C 30,1 C 0,0 km/h
27.07.2016 14:00 29,1 C 48 % 1015,0 hPa 0,0 l/m 3,2 km/h NO 16,9 C 29,1 C 1,8 km/h
27.07.2016 15:00 29,4 C 46 % 1014,5 hPa 0,0 l/m 0,0 km/h W-NW 16,5 C 29,4 C 0,0 km/h
27.07.2016 16:00 27,9 C 48 % 1014,4 hPa 0,0 l/m 1,3 km/h W-NW 15,9 C 27,9 C 0,7 km/h
27.07.2016 17:00 31,3 C 41 % 1014,1 hPa 0,0 l/m 0,0 km/h N 16,4 C 31,3 C 0,0 km/h
27.07.2016 18:00 30,9 C 38 % 1014,0 hPa 0,0 l/m 3,2 km/h N-NW 14,9 C 30,9 C 1,8 km/h
27.07.2016 19:00 25,1 C 52 % 1014,5 hPa 0,0 l/m 0,0 km/h NW 14,5 C 25,1 C 0,0 km/h
27.07.2016 20:00 23,6 C 59 % 1015,1 hPa 0,0 l/m 0,0 km/h N-NO 15,1 C 23,6 C 0,0 km/h
27.07.2016 21:00 21,5 C 64 % 1015,6 hPa 0,0 l/m 0,0 km/h N-NO 14,4 C 21,5 C 0,0 km/h
27.07.2016 22:00 19,8 C 72 % 1016,2 hPa 0,0 l/m 0,0 km/h N-NO 14,6 C 19,8 C 0,0 km/h
27.07.2016 23:00 18,9 C 76 % 1016,2 hPa 0,0 l/m 0,0 km/h N-NO 14,6 C 18,9 C 0,0 km/h
28.07.2016 00:00 18,6 C 77 % 1016,2 hPa 0,0 l/m 0,0 km/h N-NO 14,5 C 18,6 C 0,0 km/h
28.07.2016 01:00 16,8 C 80 % 1016,1 hPa 0,0 l/m 0,0 km/h O-SO 13,3 C 16,8 C 0,0 km/h
28.07.2016 02:00 16,2 C 82 % 1016,0 hPa 0,0 l/m 0,0 km/h O-SO 13,1 C 16,2 C 0,0 km/h
28.07.2016 03:00 15,3 C 83 % 1015,6 hPa 0,0 l/m 0,0 km/h O-SO 12,4 C 15,3 C 0,0 km/h
28.07.2016 04:00 14,1 C 83 % 1015,5 hPa 0,0 l/m 0,0 km/h O-SO 11,3 C 14,1 C 0,0 km/h
28.07.2016 05:00 13,6 C 84 % 1015,5 hPa 0,0 l/m 0,0 km/h O 10,9 C 13,6 C 0,0 km/h
28.07.2016 06:00 14,9 C 83 % 1015,6 hPa 0,0 l/m 0,0 km/h O-SO 12,0 C 14,9 C 0,0 km/h
28.07.2016 07:00 17,8 C 83 % 1015,5 hPa 0,0 l/m 0,0 km/h O 14,9 C 17,8 C 0,0 km/h
28.07.2016 08:00 24,4 C 69 % 1015,6 hPa 0,0 l/m 0,0 km/h W 18,3 C 24,4 C 0,0 km/h
28.07.2016 09:00 27,8 C 55 % 1015,4 hPa 0,0 l/m 0,0 km/h N 17,9 C 27,8 C 0,0 km/h
28.07.2016 10:00 26,9 C 57 % 1015,3 hPa 0,0 l/m 0,0 km/h SW 17,6 C 26,9 C 0,0 km/h
28.07.2016 11:00 29,2 C 49 % 1015,4 hPa 0,0 l/m 0,0 km/h W-SW 17,4 C 29,2 C 0,0 km/h
28.07.2016 12:00 27,2 C 54 % 1015,2 hPa 0,0 l/m 7,8 km/h W-NW 17,1 C 26,9 C 4,3 km/h
28.07.2016 13:00 26,5 C 56 % 1015,1 hPa 0,0 l/m 0,0 km/h W 17,0 C 26,5 C 0,0 km/h
28.07.2016 14:00 27,9 C 47 % 1014,9 hPa 0,0 l/m 10,4 km/h SW 15,5 C 27,3 C 5,8 km/h
28.07.2016 15:00 29,4 C 43 % 1014,3 hPa 0,0 l/m 17,5 km/h W 15,5 C 28,5 C 9,7 km/h
28.07.2016 16:00 30,3 C 42 % 1013,9 hPa 0,0 l/m 23,3 km/h W-SW 15,9 C 29,4 C 13,0 km/h
28.07.2016 17:00 30,6 C 41 % 1013,5 hPa 0,0 l/m 19,4 km/h W 15,8 C 29,9 C 10,8 km/h
28.07.2016 18:00 25,5 C 53 % 1013,7 hPa 0,0 l/m 1,9 km/h W 15,2 C 25,5 C 1,1 km/h
28.07.2016 19:00 23,6 C 57 % 1013,9 hPa 0,0 l/m 8,4 km/h N 14,6 C 23,0 C 4,7 km/h
28.07.2016 20:00 21,9 C 65 % 1014,1 hPa 0,0 l/m 2,6 km/h NO 15,0 C 21,9 C 1,4 km/h
28.07.2016 21:00 19,9 C 71 % 1014,6 hPa 0,0 l/m 0,0 km/h NO 14,5 C 19,9 C 0,0 km/h
28.07.2016 22:00 19,9 C 73 % 1014,3 hPa 0,0 l/m 0,0 km/h NW 14,9 C 19,9 C 0,0 km/h
28.07.2016 23:00 19,9 C 76 % 1014,9 hPa 0,0 l/m 11,7 km/h SO 15,5 C 18,0 C 6,5 km/h
29.07.2016 00:00 17,8 C 81 % 1015,2 hPa 4,7 l/m 0,0 km/h SO 14,5 C 17,8 C 0,0 km/h
29.07.2016 01:00 17,3 C 83 % 1014,9 hPa 0,0 l/m 0,0 km/h O-NO 14,4 C 17,3 C 0,0 km/h
29.07.2016 02:00 17,3 C 83 % 1014,6 hPa 0,0 l/m 0,0 km/h O-NO 14,4 C 17,3 C 0,0 km/h
29.07.2016 03:00 16,9 C 83 % 1014,4 hPa 0,0 l/m 0,0 km/h O-NO 14,0 C 16,9 C 0,0 km/h
29.07.2016 04:00 16,9 C 83 % 1014,4 hPa 0,0 l/m 0,0 km/h O-NO 14,0 C 16,9 C 0,0 km/h
29.07.2016 05:00 17,0 C 82 % 1014,3 hPa 0,0 l/m 0,0 km/h O-SO 13,9 C 17,0 C 0,0 km/h
29.07.2016 06:00 17,3 C 82 % 1014,0 hPa 0,0 l/m 0,0 km/h O-SO 14,2 C 17,3 C 0,0 km/h
29.07.2016 07:00 23,3 C 81 % 1014,5 hPa 0,0 l/m 0,0 km/h S-SO 19,8 C 23,3 C 0,0 km/h
29.07.2016 08:00 22,1 C 79 % 1014,2 hPa 0,0 l/m 0,0 km/h W-SW 18,3 C 22,1 C 0,0 km/h
29.07.2016 09:00 26,7 C 61 % 1014,2 hPa 0,0 l/m 9,1 km/h N 18,5 C 26,2 C 5,0 km/h
Min-Datum _ 28.07.16 25.07.16 28.07.16 - 25.07.16 - 28.07.16 28.07.16 25.07.16
_ Min-Zeit 05:56 17:56 17:56 - 00:56 - 05:56 05:56 00:56
Minimum _ 13,6 C 36 % 1013,5 hPa - 0,0 km/h - 10,9 C 13,6 C 0,0 km/h
Max-Datum _ 25.07.16 25.07.16 26.07.16 29.07.16 28.07.16 - 27.07.16 25.07.16 28.07.16
_ Max-Zeit 17:56 03:56 00:56 00:56 16:56 - 09:56 17:56 16:56
Maximum _ 36,8 C 84 % 1017,6 hPa 4,7 l/m 23,3 km/h
W-SW
- 19,9 C 36,8 C 13,0 km/h
W-SW
Durchschnitt _ 23,2 C 66 % 1015,9 hPa #4,7 l/m 1,9 km/h N-NO 15,9 C 23,1 C 1,0 km/h
www.sexauwetter.de